Time;durP1;ratioP1;P1;durP2;ratioP2;P2;SDS_P1;SDS_P2;PMS_P1;PMS_P2;Temp;Humidity;BMP_temperature;BMP_pressure;BME280_temperature;BME280_humidity;BME280_pressure;Samples;Min_cycle;Max_cycle;Signal;HPM_P1;HPM_P2
2021/01/23 00:01:04;;;;;;;9.13;8.23;;;;;;;;;;5094346;28;20526;-67
2021/01/23 00:03:29;;;;;;;10.37;8.17;;;;;;;;;;5092997;28;20449;-67
2021/01/23 00:05:55;;;;;;;10.63;8.97;;;;;;;;;;5092063;28;20376;-67
2021/01/23 00:08:20;;;;;;;10.43;8.87;;;;;;;;;;5093914;28;20032;-67
2021/01/23 00:10:45;;;;;;;11.43;8.90;;;;;;;;;;5093602;28;20020;-65
2021/01/23 00:13:10;;;;;;;10.17;8.20;;;;;;;;;;5094433;28;20022;-66
2021/01/23 00:15:36;;;;;;;10.77;8.03;;;;;;;;;;5090444;28;20024;-67
2021/01/23 00:18:01;;;;;;;10.70;8.97;;;;;;;;;;5092715;28;20024;-67
2021/01/23 00:20:26;;;;;;;9.97;8.27;;;;;;;;;;5094405;28;20107;-67
2021/01/23 00:22:51;;;;;;;10.93;8.70;;;;;;;;;;5092284;28;20020;-66
2021/01/23 00:25:17;;;;;;;11.30;8.57;;;;;;;;;;5086048;28;20467;-67
2021/01/23 00:27:42;;;;;;;13.17;9.30;;;;;;;;;;5093227;28;20094;-67
2021/01/23 00:30:08;;;;;;;9.93;8.23;;;;;;;;;;5092263;28;20032;-67
2021/01/23 00:32:33;;;;;;;13.10;9.00;;;;;;;;;;5092529;28;20028;-67
2021/01/23 00:34:59;;;;;;;13.10;10.27;;;;;;;;;;5090944;28;20073;-67
2021/01/23 00:37:24;;;;;;;13.93;10.60;;;;;;;;;;5093450;28;20141;-67
2021/01/23 00:39:49;;;;;;;12.07;9.83;;;;;;;;;;5093839;28;20023;-67
2021/01/23 00:42:14;;;;;;;12.97;10.07;;;;;;;;;;5093015;28;20020;-67
2021/01/23 00:44:40;;;;;;;13.27;10.20;;;;;;;;;;5089230;28;20020;-67
2021/01/23 00:47:05;;;;;;;13.80;10.63;;;;;;;;;;5092076;28;20028;-67
2021/01/23 00:49:30;;;;;;;14.23;10.93;;;;;;;;;;5093524;28;20077;-67
2021/01/23 00:51:55;;;;;;;14.90;11.33;;;;;;;;;;5092505;28;20093;-67
2021/01/23 00:54:20;;;;;;;14.50;10.43;;;;;;;;;;5092902;28;20019;-67
2021/01/23 00:56:46;;;;;;;14.33;11.13;;;;;;;;;;5089889;28;20019;-66
2021/01/23 00:59:11;;;;;;;16.77;12.13;;;;;;;;;;5093374;28;20031;-67
2021/01/23 01:01:36;;;;;;;15.23;11.13;;;;;;;;;;5093485;28;20028;-67
2021/01/23 01:04:01;;;;;;;15.23;11.83;;;;;;;;;;5091396;28;20537;-67
2021/01/23 01:06:27;;;;;;;14.43;10.90;;;;;;;;;;5090155;28;20475;-67
2021/01/23 01:08:52;;;;;;;14.57;10.53;;;;;;;;;;5091392;28;20437;-67
2021/01/23 01:11:17;;;;;;;12.80;10.30;;;;;;;;;;5093382;28;20035;-67
2021/01/23 01:13:42;;;;;;;13.47;9.80;;;;;;;;;;5091630;28;20023;-67
2021/01/23 01:16:07;;;;;;;11.77;9.73;;;;;;;;;;5075124;28;20023;-67
2021/01/23 01:18:33;;;;;;;14.57;10.93;;;;;;;;;;5089020;28;20019;-67
2021/01/23 01:20:58;;;;;;;14.90;11.73;;;;;;;;;;5090330;28;20205;-67
2021/01/23 01:23:23;;;;;;;15.80;12.43;;;;;;;;;;5091184;28;20023;-67
2021/01/23 01:25:48;;;;;;;14.80;11.83;;;;;;;;;;5081357;28;20028;-67
2021/01/23 01:28:14;;;;;;;16.87;13.40;;;;;;;;;;5088449;28;20060;-67
2021/01/23 01:30:39;;;;;;;15.53;13.10;;;;;;;;;;5092349;28;20107;-67
2021/01/23 01:33:04;;;;;;;18.47;14.27;;;;;;;;;;5087863;28;20091;-67
2021/01/23 01:35:30;;;;;;;18.50;13.80;;;;;;;;;;5073834;28;20066;-67
2021/01/23 01:37:55;;;;;;;20.47;14.63;;;;;;;;;;5091661;28;20120;-67
2021/01/23 01:40:20;;;;;;;21.00;15.53;;;;;;;;;;5091291;28;20490;-67
2021/01/23 01:42:45;;;;;;;21.67;14.97;;;;;;;;;;5092567;28;20069;-67
2021/01/23 01:45:11;;;;;;;21.43;16.13;;;;;;;;;;5089676;28;20020;-66
2021/01/23 01:47:37;;;;;;;20.33;15.30;;;;;;;;;;5088368;28;20277;-66
2021/01/23 01:50:03;;;;;;;21.10;15.60;;;;;;;;;;5092704;28;20482;-66
2021/01/23 01:52:28;;;;;;;21.77;16.23;;;;;;;;;;5092268;28;20020;-66
2021/01/23 01:54:53;;;;;;;22.67;16.17;;;;;;;;;;5087906;28;20199;-67
2021/01/23 01:57:19;;;;;;;20.13;15.60;;;;;;;;;;5092548;28;20020;-66
2021/01/23 01:59:45;;;;;;;17.57;13.57;;;;;;;;;;5090706;28;20024;-68
2021/01/23 02:02:13;;;;;;;21.30;15.47;;;;;;;;;;5092800;28;20024;-67
2021/01/23 02:04:43;;;;;;;22.00;15.90;;;;;;;;;;5088545;28;20028;-65
2021/01/23 02:07:11;;;;;;;18.63;14.07;;;;;;;;;;5087271;28;20024;-65
2021/01/23 02:10:03;;;;;;;20.67;14.83;;;;;;;;;;5086025;28;20054;-66
2021/01/23 02:12:47;;;;;;;17.30;12.40;;;;;;;;;;5091367;28;20028;-66
2021/01/23 02:15:16;;;;;;;16.87;12.43;;;;;;;;;;5081894;28;20095;-65
2021/01/23 02:17:44;;;;;;;19.40;13.70;;;;;;;;;;5088375;28;20032;-66
2021/01/23 02:20:09;;;;;;;17.87;13.10;;;;;;;;;;5090643;28;20047;-66
2021/01/23 02:22:53;;;;;;;20.03;14.23;;;;;;;;;;5082545;28;20494;-66
2021/01/23 02:25:20;;;;;;;16.57;12.77;;;;;;;;;;5082340;28;20105;-68
2021/01/23 02:28:00;;;;;;;19.27;14.33;;;;;;;;;;5088582;28;20425;-66
2021/01/23 02:30:28;;;;;;;16.93;11.50;;;;;;;;;;5089407;28;20036;-66
2021/01/23 02:32:56;;;;;;;17.93;12.73;;;;;;;;;;5071711;28;20449;-67
2021/01/23 02:35:23;;;;;;;17.23;12.30;;;;;;;;;;5080802;28;20374;-67
2021/01/23 02:37:49;;;;;;;14.97;11.67;;;;;;;;;;5088828;28;20368;-66
2021/01/23 02:40:14;;;;;;;17.33;12.90;;;;;;;;;;5090704;28;20103;-66
2021/01/23 02:42:40;;;;;;;16.77;11.50;;;;;;;;;;5091059;28;20071;-67
2021/01/23 02:45:09;;;;;;;14.13;11.07;;;;;;;;;;5086961;28;20518;-67
2021/01/23 02:47:35;;;;;;;15.27;11.00;;;;;;;;;;5091702;28;20122;-67
2021/01/23 02:50:00;;;;;;;15.17;11.00;;;;;;;;;;5090517;28;20538;-67
2021/01/23 02:52:32;;;;;;;13.00;9.13;;;;;;;;;;5084256;28;20112;-67
2021/01/23 02:55:03;;;;;;;13.90;11.03;;;;;;;;;;5082719;28;20415;-67
2021/01/23 02:57:29;;;;;;;13.50;9.70;;;;;;;;;;5086572;28;20107;-67
2021/01/23 02:59:57;;;;;;;14.27;10.77;;;;;;;;;;5086410;28;20530;-67
2021/01/23 03:02:22;;;;;;;14.00;10.37;;;;;;;;;;5089893;28;20028;-67
2021/01/23 03:04:48;;;;;;;14.47;10.97;;;;;;;;;;5085384;28;20536;-67
2021/01/23 03:07:14;;;;;;;16.43;11.77;;;;;;;;;;5089892;28;20038;-67
2021/01/23 03:09:39;;;;;;;16.13;12.30;;;;;;;;;;5089430;28;20063;-67
2021/01/23 03:12:05;;;;;;;14.57;11.30;;;;;;;;;;5089877;28;20047;-67
2021/01/23 03:14:30;;;;;;;17.30;12.27;;;;;;;;;;5086022;28;20020;-69
2021/01/23 03:16:56;;;;;;;15.43;11.67;;;;;;;;;;5089239;28;20059;-67
2021/01/23 03:19:21;;;;;;;16.23;12.83;;;;;;;;;;5090569;28;20027;-67
2021/01/23 03:21:47;;;;;;;14.67;11.00;;;;;;;;;;5089399;28;20031;-67
2021/01/23 03:24:13;;;;;;;17.30;12.63;;;;;;;;;;5089811;28;20028;-67
2021/01/23 03:26:38;;;;;;;17.27;12.40;;;;;;;;;;5085472;28;20035;-67
2021/01/23 03:29:04;;;;;;;15.90;12.27;;;;;;;;;;5089252;28;20048;-67
2021/01/23 03:31:30;;;;;;;17.20;12.40;;;;;;;;;;5088836;28;20466;-67
2021/01/23 03:33:56;;;;;;;13.30;10.17;;;;;;;;;;5089153;28;20024;-66
2021/01/23 03:36:21;;;;;;;15.77;10.87;;;;;;;;;;5087114;28;20449;-67
2021/01/23 03:38:46;;;;;;;18.43;12.13;;;;;;;;;;5089287;28;20055;-68
2021/01/23 03:41:11;;;;;;;16.20;11.63;;;;;;;;;;5091016;28;20111;-66
2021/01/23 03:43:37;;;;;;;16.07;11.57;;;;;;;;;;5091170;28;20024;-67
2021/01/23 03:46:02;;;;;;;16.60;10.37;;;;;;;;;;5085691;28;20408;-66
2021/01/23 03:48:27;;;;;;;12.77;9.40;;;;;;;;;;5089073;28;20028;-66
2021/01/23 03:50:52;;;;;;;13.90;9.60;;;;;;;;;;5089872;28;20111;-67
2021/01/23 03:53:17;;;;;;;13.33;9.90;;;;;;;;;;5090537;28;20019;-67
2021/01/23 03:55:43;;;;;;;13.27;9.40;;;;;;;;;;5086712;28;20012;-67
2021/01/23 03:58:08;;;;;;;13.83;9.83;;;;;;;;;;5088597;28;20214;-66
2021/01/23 04:00:33;;;;;;;14.27;11.10;;;;;;;;;;5089951;28;20119;-67
2021/01/23 04:02:58;;;;;;;10.53;8.33;;;;;;;;;;5085641;28;20383;-67
2021/01/23 04:05:24;;;;;;;10.80;7.97;;;;;;;;;;5070835;28;20020;-67
2021/01/23 04:07:49;;;;;;;12.83;9.70;;;;;;;;;;5084973;28;20016;-67
2021/01/23 04:10:14;;;;;;;11.63;9.10;;;;;;;;;;5071542;28;20016;-68
2021/01/23 04:12:40;;;;;;;11.10;8.27;;;;;;;;;;5070737;28;20113;-67
2021/01/23 04:15:06;;;;;;;12.90;8.67;;;;;;;;;;5078480;28;20553;-67
2021/01/23 04:17:31;;;;;;;11.27;7.90;;;;;;;;;;5090460;28;20117;-67
2021/01/23 04:19:56;;;;;;;12.47;9.13;;;;;;;;;;5089160;28;20023;-67
2021/01/23 04:22:22;;;;;;;12.30;8.83;;;;;;;;;;5086749;28;20027;-65
2021/01/23 04:24:47;;;;;;;11.40;8.23;;;;;;;;;;5090916;28;20102;-67
2021/01/23 04:27:12;;;;;;;11.70;8.90;;;;;;;;;;5094631;28;20044;-67
2021/01/23 04:29:37;;;;;;;11.00;7.23;;;;;;;;;;5092137;28;20186;-67
2021/01/23 04:32:03;;;;;;;12.60;9.27;;;;;;;;;;5082145;28;20017;-67
2021/01/23 04:34:28;;;;;;;10.10;7.67;;;;;;;;;;5091809;28;20125;-67
2021/01/23 04:36:53;;;;;;;9.17;6.67;;;;;;;;;;5089746;28;20051;-67
2021/01/23 04:39:19;;;;;;;8.73;6.90;;;;;;;;;;5091764;28;20047;-67
2021/01/23 04:41:44;;;;;;;10.03;7.33;;;;;;;;;;5092399;28;20043;-67
2021/01/23 04:44:09;;;;;;;9.30;6.47;;;;;;;;;;5092893;28;20100;-68
2021/01/23 04:46:34;;;;;;;11.03;8.73;;;;;;;;;;5090345;28;20020;-67
2021/01/23 04:49:01;;;;;;;9.27;6.97;;;;;;;;;;5091471;28;20103;-67
2021/01/23 04:51:26;;;;;;;9.20;6.93;;;;;;;;;;5090818;28;20027;-67
2021/01/23 04:53:52;;;;;;;10.27;7.23;;;;;;;;;;5093255;28;20008;-67
2021/01/23 04:56:17;;;;;;;10.10;6.80;;;;;;;;;;5086154;28;20479;-68
2021/01/23 04:58:43;;;;;;;9.63;7.27;;;;;;;;;;5092981;28;20020;-67
2021/01/23 05:01:12;;;;;;;7.93;6.50;;;;;;;;;;5092795;28;20035;-67
2021/01/23 05:03:56;;;;;;;8.70;5.60;;;;;;;;;;5093490;28;20047;-67
2021/01/23 05:06:21;;;;;;;10.40;6.93;;;;;;;;;;5088684;28;20047;-67
2021/01/23 05:08:46;;;;;;;8.77;6.67;;;;;;;;;;5091830;28;20051;-67
2021/01/23 05:11:12;;;;;;;8.37;6.40;;;;;;;;;;5092822;28;20024;-67
2021/01/23 05:13:37;;;;;;;9.03;6.33;;;;;;;;;;5089595;28;20023;-67
2021/01/23 05:16:02;;;;;;;8.00;6.00;;;;;;;;;;5087892;28;20027;-67
2021/01/23 05:18:27;;;;;;;7.43;5.07;;;;;;;;;;5093313;28;20019;-67
2021/01/23 05:20:53;;;;;;;7.43;5.47;;;;;;;;;;5092278;28;20352;-66
2021/01/23 05:23:18;;;;;;;6.90;5.30;;;;;;;;;;5090123;28;20086;-66
2021/01/23 05:25:44;;;;;;;7.33;5.63;;;;;;;;;;5087488;28;20319;-66
2021/01/23 05:28:12;;;;;;;6.63;4.50;;;;;;;;;;5090673;28;20443;-66
2021/01/23 05:30:40;;;;;;;6.80;5.37;;;;;;;;;;5092801;28;20407;-66
2021/01/23 05:33:07;;;;;;;8.40;5.47;;;;;;;;;;5090931;28;20035;-66
2021/01/23 05:35:32;;;;;;;6.27;4.80;;;;;;;;;;5087593;28;20516;-66
2021/01/23 05:37:57;;;;;;;7.37;5.80;;;;;;;;;;5093003;28;20015;-67
2021/01/23 05:40:32;;;;;;;7.70;4.97;;;;;;;;;;5092415;28;20043;-67
2021/01/23 05:42:57;;;;;;;6.67;4.50;;;;;;;;;;5091182;28;20065;-66
2021/01/23 05:45:22;;;;;;;8.10;5.63;;;;;;;;;;5088105;28;20012;-67
2021/01/23 05:47:47;;;;;;;9.03;6.60;;;;;;;;;;5090061;28;20024;-66
2021/01/23 05:50:13;;;;;;;8.77;6.80;;;;;;;;;;5090580;28;20451;-67
2021/01/23 05:52:38;;;;;;;8.63;6.63;;;;;;;;;;5089644;28;20487;-67
2021/01/23 05:55:04;;;;;;;8.33;5.30;;;;;;;;;;5087910;28;20028;-67
2021/01/23 05:57:29;;;;;;;8.20;5.17;;;;;;;;;;5092744;28;20024;-67
2021/01/23 05:59:54;;;;;;;12.27;6.90;;;;;;;;;;5090460;28;20020;-67
2021/01/23 06:02:20;;;;;;;22.13;9.53;;;;;;;;;;5091166;28;20053;-68
2021/01/23 06:04:50;;;;;;;17.73;8.87;;;;;;;;;;5088346;28;20327;-68
2021/01/23 06:07:34;;;;;;;12.70;6.33;;;;;;;;;;5089562;28;20031;-68
2021/01/23 06:09:59;;;;;;;16.23;8.67;;;;;;;;;;5091812;28;20039;-68
2021/01/23 06:12:30;;;;;;;25.07;10.80;;;;;;;;;;5091835;28;20383;-68
2021/01/23 06:14:56;;;;;;;10.17;5.40;;;;;;;;;;5085325;28;20051;-69
2021/01/23 06:17:40;;;;;;;7.17;4.20;;;;;;;;;;5091748;28;20054;-68
2021/01/23 06:20:05;;;;;;;6.97;4.93;;;;;;;;;;5089717;28;20034;-68
2021/01/23 06:22:50;;;;;;;5.87;3.83;;;;;;;;;;5090785;28;20019;-68
2021/01/23 06:25:15;;;;;;;4.75;4.25;;;;;;;;;;5086877;28;20023;-70
2021/01/23 06:27:48;;;;;;;3.60;2.27;;;;;;;;;;5086328;28;20093;-69
2021/01/23 06:30:26;;;;;;;6.27;3.87;;;;;;;;;;5081104;28;20021;-69
2021/01/23 06:32:51;;;;;;;9.13;4.87;;;;;;;;;;5086931;28;20059;-69
2021/01/23 06:35:16;;;;;;;5.57;2.43;;;;;;;;;;5088186;28;20056;-69
2021/01/23 06:37:41;;;;;;;4.60;2.47;;;;;;;;;;5089627;28;20106;-69
2021/01/23 06:40:10;;;;;;;5.80;4.20;;;;;;;;;;5090393;28;20019;-70
2021/01/23 06:42:47;;;;;;;6.07;3.43;;;;;;;;;;5091745;28;20081;-69
2021/01/23 06:45:19;;;;;;;5.00;2.17;;;;;;;;;;5075992;28;20559;-69
2021/01/23 06:47:49;;;;;;;6.40;3.53;;;;;;;;;;5089461;28;20020;-69
2021/01/23 06:50:29;;;;;;;4.37;2.27;;;;;;;;;;5089676;28;20650;-69
2021/01/23 06:52:55;;;;;;;7.17;3.07;;;;;;;;;;5090425;28;20024;-69
2021/01/23 06:55:52;;;;;;;1.60;1.07;;;;;;;;;;5087680;28;20020;-69
2021/01/23 06:58:22;;;;;;;4.00;2.87;;;;;;;;;;5034123;28;20097;-68
2021/01/23 07:00:48;;;;;;;3.27;2.17;;;;;;;;;;5088969;28;20024;-68
2021/01/23 07:03:14;;;;;;;4.37;2.87;;;;;;;;;;5086246;28;20421;-67
2021/01/23 07:05:49;;;;;;;4.60;2.60;;;;;;;;;;5083648;28;20038;-66
2021/01/23 07:08:21;;;;;;;3.70;2.40;;;;;;;;;;5079202;28;20016;-68
2021/01/23 07:11:05;;;;;;;2.47;1.43;;;;;;;;;;5089634;28;20043;-67
2021/01/23 07:13:31;;;;;;;3.00;2.33;;;;;;;;;;5088138;28;20069;-67
2021/01/23 07:15:56;;;;;;;3.03;2.30;;;;;;;;;;5083548;28;20470;-68
2021/01/23 07:18:21;;;;;;;3.70;2.17;;;;;;;;;;5090670;28;20016;-68
2021/01/23 07:20:47;;;;;;;4.00;2.90;;;;;;;;;;5088962;28;20019;-68
2021/01/23 07:23:13;;;;;;;3.40;2.40;;;;;;;;;;5075212;28;20528;-68
2021/01/23 07:25:38;;;;;;;2.20;2.00;;;;;;;;;;5085632;28;20012;-67
2021/01/23 07:28:04;;;;;;;3.00;2.10;;;;;;;;;;5089677;28;20040;-68
2021/01/23 07:30:29;;;;;;;2.33;1.57;;;;;;;;;;5088555;28;20438;-68
2021/01/23 07:32:54;;;;;;;2.20;1.27;;;;;;;;;;5091454;28;20024;-67
2021/01/23 07:35:19;;;;;;;3.20;1.73;;;;;;;;;;5086180;28;20016;-68
2021/01/23 07:37:53;;;;;;;1.67;0.53;;;;;;;;;;5088840;28;20024;-67
2021/01/23 07:40:22;;;;;;;1.40;0.40;;;;;;;;;;5089381;28;20024;-67
2021/01/23 07:42:47;;;;;;;1.33;0.50;;;;;;;;;;5088228;28;20020;-68
2021/01/23 07:45:14;;;;;;;1.80;0.90;;;;;;;;;;5086826;28;20024;-67
2021/01/23 07:47:40;;;;;;;0.50;0.30;;;;;;;;;;5088616;28;20521;-67
2021/01/23 07:50:05;;;;;;;0.70;0.40;;;;;;;;;;5089139;28;20028;-67
2021/01/23 07:52:30;;;;;;;0.37;0.30;;;;;;;;;;5091134;28;20015;-67
2021/01/23 07:54:55;;;;;;;1.37;0.40;;;;;;;;;;5089995;28;20052;-67
2021/01/23 07:57:21;;;;;;;0.50;0.27;;;;;;;;;;5094185;28;20019;-67
2021/01/23 07:59:46;;;;;;;0.43;0.20;;;;;;;;;;5093384;28;20020;-67
2021/01/23 08:02:12;;;;;;;0.20;0.20;;;;;;;;;;5093308;28;20470;-67
2021/01/23 08:04:38;;;;;;;0.50;0.30;;;;;;;;;;5090155;28;20020;-68
2021/01/23 08:07:17;;;;;;;0.50;0.30;;;;;;;;;;5091205;28;20027;-67
2021/01/23 08:09:42;;;;;;;0.97;0.30;;;;;;;;;;5093081;28;20035;-67
2021/01/23 08:12:17;;;;;;;1.03;0.40;;;;;;;;;;5093483;28;20021;-67
2021/01/23 08:14:52;;;;;;;0.45;0.35;;;;;;;;;;5090328;28;20050;-67
2021/01/23 08:17:18;;;;;;;0.32;0.30;;;;;;;;;;5092233;28;20021;-67
2021/01/23 08:19:50;;;;;;;0.23;0.10;;;;;;;;;;5094326;28;20092;-68
2021/01/23 08:22:15;;;;;;;0.30;0.20;;;;;;;;;;5091271;28;20015;-68
2021/01/23 08:24:40;;;;;;;0.50;0.30;;;;;;;;;;5089675;28;20466;-69
2021/01/23 08:27:16;;;;;;;0.90;0.60;;;;;;;;;;5091370;28;20490;-69
2021/01/23 08:29:43;;;;;;;0.40;0.30;;;;;;;;;;5094194;28;20077;-69
2021/01/23 08:32:08;;;;;;;0.23;0.10;;;;;;;;;;5086725;28;20024;-69
2021/01/23 08:34:34;;;;;;;0.50;0.37;;;;;;;;;;5091391;28;20344;-68
2021/01/23 08:36:59;;;;;;;1.90;0.80;;;;;;;;;;5090942;28;20112;-69
2021/01/23 08:39:24;;;;;;;1.20;0.37;;;;;;;;;;5093998;28;20020;-69
2021/01/23 08:41:49;;;;;;;0.30;0.20;;;;;;;;;;5092080;28;20470;-69
2021/01/23 08:44:14;;;;;;;0.30;0.20;;;;;;;;;;5093610;28;20044;-68
2021/01/23 08:46:40;;;;;;;0.73;0.23;;;;;;;;;;5089060;28;20124;-70
2021/01/23 08:49:05;;;;;;;0.30;0.27;;;;;;;;;;5094220;28;20024;-70
2021/01/23 08:51:33;;;;;;;0.20;0.10;;;;;;;;;;5089738;28;20467;-69
2021/01/23 08:53:58;;;;;;;0.57;0.10;;;;;;;;;;5072950;28;20023;-68
2021/01/23 08:56:23;;;;;;;0.87;0.30;;;;;;;;;;5090169;28;20016;-70
2021/01/23 08:58:48;;;;;;;0.70;0.20;;;;;;;;;;5093525;28;20016;-70
2021/01/23 09:01:14;;;;;;;0.77;0.37;;;;;;;;;;5091329;28;20020;-69
2021/01/23 09:03:40;;;;;;;0.50;0.30;;;;;;;;;;5092566;28;20043;-70
2021/01/23 09:06:05;;;;;;;0.50;0.30;;;;;;;;;;5089108;28;20032;-69
2021/01/23 09:08:30;;;;;;;0.10;0.10;;;;;;;;;;5090644;28;20022;-69
2021/01/23 09:10:55;;;;;;;0.40;0.20;;;;;;;;;;5090584;28;20067;-69
2021/01/23 09:13:21;;;;;;;1.00;0.50;;;;;;;;;;5093951;28;20031;-69
2021/01/23 09:15:46;;;;;;;0.40;0.30;;;;;;;;;;5080498;28;20054;-68
2021/01/23 09:18:11;;;;;;;0.47;0.30;;;;;;;;;;5093498;28;20054;-69
2021/01/23 09:20:36;;;;;;;0.30;0.23;;;;;;;;;;5091449;28;20039;-69
2021/01/23 09:23:02;;;;;;;0.60;0.20;;;;;;;;;;5092579;28;20074;-68
2021/01/23 09:25:27;;;;;;;0.93;0.40;;;;;;;;;;5087377;28;20463;-68
2021/01/23 09:27:52;;;;;;;0.50;0.30;;;;;;;;;;5086741;28;20332;-69
2021/01/23 09:30:17;;;;;;;1.13;0.93;;;;;;;;;;5091382;28;20055;-69
2021/01/23 09:32:43;;;;;;;2.77;1.17;;;;;;;;;;5090182;28;20546;-69
2021/01/23 09:35:09;;;;;;;1.53;0.83;;;;;;;;;;5088339;28;20493;-69
2021/01/23 09:37:34;;;;;;;1.30;0.63;;;;;;;;;;5091774;28;20114;-69
2021/01/23 09:40:01;;;;;;;1.60;1.10;;;;;;;;;;5091382;28;20099;-69
2021/01/23 09:42:26;;;;;;;0.40;0.40;;;;;;;;;;5091059;28;20528;-69
2021/01/23 09:44:51;;;;;;;1.37;1.00;;;;;;;;;;5089156;28;20024;-69
2021/01/23 09:47:17;;;;;;;0.93;0.70;;;;;;;;;;5091649;28;20042;-69
2021/01/23 09:49:43;;;;;;;2.13;1.87;;;;;;;;;;5089272;28;20144;-69
2021/01/23 09:52:08;;;;;;;0.87;0.83;;;;;;;;;;5090009;28;20462;-68
2021/01/23 09:54:33;;;;;;;1.27;1.13;;;;;;;;;;5084575;28;20510;-70
2021/01/23 09:56:59;;;;;;;2.00;1.40;;;;;;;;;;5079641;28;20016;-69
2021/01/23 09:59:25;;;;;;;2.17;1.37;;;;;;;;;;5088011;28;20478;-70
2021/01/23 10:01:51;;;;;;;2.00;1.80;;;;;;;;;;5089842;28;20031;-70
2021/01/23 10:04:16;;;;;;;1.60;1.10;;;;;;;;;;5089789;28;20019;-69
2021/01/23 10:06:41;;;;;;;1.00;0.67;;;;;;;;;;5082971;28;20031;-68
2021/01/23 10:09:06;;;;;;;2.63;1.63;;;;;;;;;;5091639;28;20047;-69
2021/01/23 10:11:31;;;;;;;1.07;0.73;;;;;;;;;;5091500;28;20405;-68
2021/01/23 10:13:57;;;;;;;0.83;0.40;;;;;;;;;;5085997;28;20024;-68
2021/01/23 10:16:22;;;;;;;1.80;1.10;;;;;;;;;;5088932;28;20032;-68
2021/01/23 10:18:47;;;;;;;0.40;0.37;;;;;;;;;;5091727;28;20070;-68
2021/01/23 10:21:12;;;;;;;0.93;0.77;;;;;;;;;;5091439;28;20027;-68
2021/01/23 10:23:38;;;;;;;1.30;0.93;;;;;;;;;;5090973;28;20028;-67
2021/01/23 10:26:03;;;;;;;1.43;1.00;;;;;;;;;;5087966;28;20077;-68
2021/01/23 10:28:28;;;;;;;0.80;0.77;;;;;;;;;;5090989;28;20510;-68
2021/01/23 10:30:54;;;;;;;0.90;0.70;;;;;;;;;;5091285;28;20020;-68
2021/01/23 10:33:19;;;;;;;1.30;1.20;;;;;;;;;;5089744;28;20051;-68
2021/01/23 10:35:44;;;;;;;1.37;1.07;;;;;;;;;;5082539;28;20363;-69
2021/01/23 10:38:09;;;;;;;0.40;0.40;;;;;;;;;;5087850;28;20065;-69
2021/01/23 10:40:35;;;;;;;1.00;0.90;;;;;;;;;;5090115;28;20008;-68
2021/01/23 10:43:00;;;;;;;1.67;1.13;;;;;;;;;;5090152;28;20030;-67
2021/01/23 10:45:25;;;;;;;0.93;0.77;;;;;;;;;;5086775;28;20031;-70
2021/01/23 10:47:51;;;;;;;1.67;1.50;;;;;;;;;;5089699;28;20275;-68
2021/01/23 10:50:16;;;;;;;1.23;0.90;;;;;;;;;;5088356;28;20032;-69
2021/01/23 10:52:41;;;;;;;2.80;1.30;;;;;;;;;;5085694;28;20059;-68
2021/01/23 10:55:07;;;;;;;1.37;1.07;;;;;;;;;;5084280;28;20008;-67
2021/01/23 10:57:32;;;;;;;2.00;1.80;;;;;;;;;;5079533;28;20020;-66
2021/01/23 10:59:57;;;;;;;1.67;1.10;;;;;;;;;;5078895;28;20054;-66
2021/01/23 11:02:22;;;;;;;3.33;1.53;;;;;;;;;;5091670;28;20031;-67
2021/01/23 11:04:48;;;;;;;1.27;1.17;;;;;;;;;;5087587;28;20043;-66
2021/01/23 11:07:13;;;;;;;2.33;2.03;;;;;;;;;;5090958;28;20012;-67
2021/01/23 11:09:38;;;;;;;2.80;2.30;;;;;;;;;;5087844;28;20024;-67
2021/01/23 11:12:04;;;;;;;2.60;2.17;;;;;;;;;;5091155;28;20015;-67
2021/01/23 11:14:29;;;;;;;1.40;1.30;;;;;;;;;;5089780;28;20042;-67
2021/01/23 11:16:54;;;;;;;2.17;1.87;;;;;;;;;;5084753;28;20060;-67
2021/01/23 11:19:20;;;;;;;1.30;1.20;;;;;;;;;;5089573;28;20008;-68
2021/01/23 11:21:45;;;;;;;4.10;2.70;;;;;;;;;;5089418;28;20462;-67
2021/01/23 11:24:10;;;;;;;2.17;1.83;;;;;;;;;;5090465;28;20442;-66
2021/01/23 11:26:35;;;;;;;3.93;3.27;;;;;;;;;;5088032;28;20016;-66
2021/01/23 11:29:01;;;;;;;3.50;3.20;;;;;;;;;;5093724;28;20549;-67
2021/01/23 11:31:26;;;;;;;1.87;1.27;;;;;;;;;;5094275;28;20027;-66
2021/01/23 11:33:52;;;;;;;4.23;2.90;;;;;;;;;;5092721;28;20012;-65
2021/01/23 11:36:18;;;;;;;2.47;2.27;;;;;;;;;;5090644;28;20018;-65
2021/01/23 11:38:44;;;;;;;4.03;3.17;;;;;;;;;;5094318;28;20074;-66
2021/01/23 11:41:09;;;;;;;5.17;2.97;;;;;;;;;;5093163;28;20024;-67
2021/01/23 11:43:34;;;;;;;3.63;3.30;;;;;;;;;;5088868;28;20074;-65
2021/01/23 11:46:01;;;;;;;3.27;2.50;;;;;;;;;;5086471;28;20081;-65
2021/01/23 11:48:26;;;;;;;2.67;2.40;;;;;;;;;;5093064;28;20105;-65
2021/01/23 11:50:52;;;;;;;5.43;4.10;;;;;;;;;;5089916;28;20121;-65
2021/01/23 11:53:17;;;;;;;5.03;3.83;;;;;;;;;;5094607;28;20095;-67
2021/01/23 11:55:42;;;;;;;3.47;3.17;;;;;;;;;;5090895;28;20348;-67
2021/01/23 11:58:08;;;;;;;3.63;3.17;;;;;;;;;;5093118;28;20024;-66
2021/01/23 12:00:35;;;;;;;4.93;2.70;;;;;;;;;;5092553;28;20020;-66
2021/01/23 12:03:00;;;;;;;3.20;2.73;;;;;;;;;;5093823;28;20051;-66
2021/01/23 12:05:26;;;;;;;4.03;3.17;;;;;;;;;;5091405;28;20052;-66
2021/01/23 12:07:51;;;;;;;3.00;2.60;;;;;;;;;;5093931;28;20031;-66
2021/01/23 12:10:16;;;;;;;3.47;2.83;;;;;;;;;;5092595;28;20028;-66
2021/01/23 12:12:42;;;;;;;4.97;4.27;;;;;;;;;;5094219;28;20068;-66
2021/01/23 12:15:08;;;;;;;3.30;2.33;;;;;;;;;;5083542;28;20030;-66
2021/01/23 12:17:33;;;;;;;2.10;1.80;;;;;;;;;;5092210;28;20031;-66
2021/01/23 12:19:58;;;;;;;1.77;1.40;;;;;;;;;;5092239;28;20024;-66
2021/01/23 12:22:24;;;;;;;2.93;2.43;;;;;;;;;;5093836;28;20097;-66
2021/01/23 12:24:49;;;;;;;2.83;2.43;;;;;;;;;;5083112;28;20511;-68
2021/01/23 12:27:14;;;;;;;3.10;2.47;;;;;;;;;;5091763;28;20043;-67
2021/01/23 12:29:39;;;;;;;2.43;1.57;;;;;;;;;;5093485;28;20471;-67
2021/01/23 12:32:06;;;;;;;3.53;2.03;;;;;;;;;;5093095;28;20031;-67
2021/01/23 12:34:32;;;;;;;2.80;2.50;;;;;;;;;;5091172;28;20021;-67
2021/01/23 12:36:57;;;;;;;2.87;2.57;;;;;;;;;;5090408;28;20379;-67
2021/01/23 12:39:22;;;;;;;2.37;2.17;;;;;;;;;;5090758;28;20114;-67
2021/01/23 12:41:47;;;;;;;1.33;1.13;;;;;;;;;;5091994;28;20389;-67
2021/01/23 12:44:13;;;;;;;2.30;1.47;;;;;;;;;;5093130;28;20085;-67
2021/01/23 12:46:38;;;;;;;2.10;1.87;;;;;;;;;;5088542;28;20028;-67
2021/01/23 12:49:03;;;;;;;1.50;0.97;;;;;;;;;;5091163;28;20028;-67
2021/01/23 12:51:28;;;;;;;3.37;1.67;;;;;;;;;;5081958;28;20026;-67
2021/01/23 12:53:54;;;;;;;2.53;1.80;;;;;;;;;;5086358;28;20012;-68
2021/01/23 12:56:19;;;;;;;2.53;2.20;;;;;;;;;;5089620;28;20080;-67
2021/01/23 12:58:44;;;;;;;2.60;1.90;;;;;;;;;;5091509;28;20673;-67
2021/01/23 13:01:09;;;;;;;2.43;2.00;;;;;;;;;;5091161;28;20016;-67
2021/01/23 13:03:35;;;;;;;2.30;2.10;;;;;;;;;;5091247;28;20498;-67
2021/01/23 13:06:00;;;;;;;2.53;2.33;;;;;;;;;;5089983;28;20039;-67
2021/01/23 13:08:25;;;;;;;2.90;2.17;;;;;;;;;;5090385;28;20016;-68
2021/01/23 13:10:52;;;;;;;2.73;2.47;;;;;;;;;;5086326;28;20047;-67
2021/01/23 13:13:17;;;;;;;5.13;3.53;;;;;;;;;;5092280;28;20111;-67
2021/01/23 13:15:42;;;;;;;4.13;3.23;;;;;;;;;;5080086;28;20091;-67
2021/01/23 13:18:08;;;;;;;5.47;3.63;;;;;;;;;;5091602;28;20047;-67
2021/01/23 13:20:33;;;;;;;5.70;4.40;;;;;;;;;;5092443;28;20471;-67
2021/01/23 13:22:58;;;;;;;6.43;5.00;;;;;;;;;;5089975;28;20024;-67
2021/01/23 13:25:24;;;;;;;11.87;8.00;;;;;;;;;;5088791;28;20062;-67
2021/01/23 13:27:49;;;;;;;6.47;5.07;;;;;;;;;;5092409;28;20052;-67
2021/01/23 13:30:14;;;;;;;7.17;5.57;;;;;;;;;;5091509;28;20386;-67
2021/01/23 13:32:45;;;;;;;7.50;6.33;;;;;;;;;;5090842;28;20454;-68
2021/01/23 13:35:11;;;;;;;8.80;6.93;;;;;;;;;;5089245;28;20301;-68
2021/01/23 13:37:36;;;;;;;10.27;6.87;;;;;;;;;;5089032;28;20430;-68
2021/01/23 13:40:02;;;;;;;10.53;7.50;;;;;;;;;;5090566;28;20016;-68
2021/01/23 13:42:27;;;;;;;8.30;6.20;;;;;;;;;;5091898;28;20032;-67
2021/01/23 13:44:52;;;;;;;9.07;6.50;;;;;;;;;;5089609;28;20020;-68
2021/01/23 13:47:18;;;;;;;8.63;5.90;;;;;;;;;;5092319;28;20227;-68
2021/01/23 13:49:43;;;;;;;6.53;4.90;;;;;;;;;;5091059;28;20106;-67
2021/01/23 13:52:08;;;;;;;7.47;5.23;;;;;;;;;;5092462;28;20041;-67
2021/01/23 13:54:33;;;;;;;7.83;5.23;;;;;;;;;;5090772;28;20016;-67
2021/01/23 13:56:58;;;;;;;7.50;5.57;;;;;;;;;;5091095;28;20008;-68
2021/01/23 13:59:24;;;;;;;8.47;6.07;;;;;;;;;;5090097;28;20459;-68
2021/01/23 14:01:49;;;;;;;8.17;5.03;;;;;;;;;;5091870;28;20071;-69
2021/01/23 14:04:14;;;;;;;9.37;6.20;;;;;;;;;;5088095;28;20023;-69
2021/01/23 14:06:41;;;;;;;9.07;5.97;;;;;;;;;;5088389;28;20020;-68
2021/01/23 14:09:06;;;;;;;7.73;4.87;;;;;;;;;;5092105;28;20520;-68
2021/01/23 14:11:31;;;;;;;8.87;5.90;;;;;;;;;;5082763;28;20119;-67
2021/01/23 14:13:57;;;;;;;10.47;6.30;;;;;;;;;;5088966;28;20543;-65
2021/01/23 14:16:22;;;;;;;11.80;8.53;;;;;;;;;;5077402;28;20078;-66
2021/01/23 14:18:48;;;;;;;14.40;8.37;;;;;;;;;;5090290;28;20051;-69
2021/01/23 14:21:13;;;;;;;10.83;6.83;;;;;;;;;;5091461;28;20020;-66
2021/01/23 14:23:38;;;;;;;9.07;5.80;;;;;;;;;;5091443;28;20035;-66
2021/01/23 14:26:03;;;;;;;12.80;7.27;;;;;;;;;;5087622;28;20028;-67
2021/01/23 14:28:29;;;;;;;13.90;7.37;;;;;;;;;;5090109;28;20052;-66
2021/01/23 14:30:54;;;;;;;12.90;7.67;;;;;;;;;;5091722;28;20084;-67